Latest Coastal Weather Observations for Hopetoun North

IDW60701

Issued at 10:45 pm WST Thursday 24 April 2014 (issued every 10 minutes, with the page automatically refreshed every 10 minutes)

About coastal observations | Map of coastal stations | Coastal observations for WA | Marine services | Other Formats
Station Details ID: 009961 Name: HOPETOUN NORTH Lat: -33.93 Lon: 120.13 Height: 26.0 m
Data from the previous 72 hours. | See also: Recent months at Hopetoun North
Date/Time
WST
Temp

°C
Wind Pressure Rain
since 9am
mm
Weather Cloud Vis
km
Sea
Height
m
Swell
Dir
 
Speed
knots
Gust
knots
hPa Trend Height
m
Period
s
Dir
24/10:30pm - S 4 7 1007.6 - 0.0 - - - - - - -
24/10:00pm - SSE 4 5 1007.8 - 0.0 - - - - - - -
24/09:30pm - SSE 3 6 1008.1 - 0.0 - - - - - - -
24/09:00pm - ESE 3 5 1008.1 - 0.0 - - - - - - -
24/08:30pm - SE 6 9 1008.2 - 0.0 - - - - - - -
24/08:00pm - SSE 2 3 1008.4 - 0.0 - - - - - - -
24/07:30pm - E 4 8 1008.2 - 0.0 - - - - - - -
24/07:00pm - E 6 9 1007.8 - 0.0 - - - - - - -
24/06:30pm - E 7 12 1008.1 - 0.0 - - - - - - -
24/06:00pm - E 9 14 1008.1 - 0.0 - - - - - - -
24/05:30pm - E 11 16 1007.6 - 0.0 - - - - - - -
24/05:00pm - ESE 13 18 1007.3 - 0.0 - - - - - - -
24/04:30pm - ESE 13 17 1007.5 - 0.0 - - - - - - -
24/04:00pm - ESE 14 20 1007.6 - 0.0 - - - - - - -
24/03:30pm - ESE 13 20 1007.8 - 0.0 - - - - - - -
24/03:00pm - ESE 14 19 1007.8 - 0.0 - - - - - - -
24/02:30pm - ESE 13 18 1008.0 - 0.0 - - - - - - -
24/02:00pm - ESE 14 20 1008.2 - 0.0 - - - - - - -
24/01:30pm - ESE 13 18 1008.6 - 0.0 - - - - - - -
24/01:00pm - ESE 13 18 1009.3 - 0.0 - - - - - - -
24/12:30pm - ESE 10 15 1010.1 - 0.0 - - - - - - -
24/12:00pm - ENE 9 13 1010.8 - 0.0 - - - - - - -
24/11:30am - ENE 9 15 1011.6 - 0.0 - - - - - - -
24/11:00am - ENE 10 14 1012.4 - 0.0 - - - - - - -
24/10:30am - ENE 11 16 1013.2 - 0.0 - - - - - - -
24/10:00am - NE 12 17 1013.7 - 0.0 - - - - - - -
24/09:30am - NE 12 16 1014.3 - 0.0 - - - - - - -
24/09:00am - NE 9 12 1014.9 - 0.2 - - - - - - -
24/08:30am - NE 8 11 1015.5 - 0.2 - - - - - - -
24/08:00am - NE 4 7 1015.8 - 0.2 - - - - - - -
24/07:30am - NE 4 5 1015.8 - 0.2 - - - - - - -
24/07:00am - NE 5 6 1015.6 - 0.2 - - - - - - -
24/06:30am - NE 4 5 1015.7 - 0.2 - - - - - - -
24/06:00am - NNE 4 5 1015.8 - 0.2 - - - - - - -
24/05:30am - NE 5 8 1015.8 - 0.2 - - - - - - -
24/05:00am - NNE 5 7 1015.8 - 0.2 - - - - - - -
24/04:30am - NE 5 6 1015.9 - 0.2 - - - - - - -
24/04:00am - NNE 5 6 1015.8 - 0.2 - - - - - - -
24/03:30am - NNE 5 6 1015.9 - 0.2 - - - - - - -
24/03:00am - NNE 5 5 1015.8 - 0.2 - - - - - - -
24/02:30am - NNE 4 5 1016.2 - 0.2 - - - - - - -
24/02:00am - NNE 4 5 1016.5 - 0.2 - - - - - - -
24/01:30am - NE 4 5 1016.9 - 0.2 - - - - - - -
24/01:00am - NE 4 5 1016.9 - 0.2 - - - - - - -
24/12:30am - NE 4 5 1016.9 - 0.2 - - - - - - -
24/12:00am - NNE 3 4 1017.0 - 0.2 - - - - - - -
 
Date/Time
WST
Temp

°C
Wind Pressure Rain
since 9am
mm
Weather Cloud Vis
km
Sea
Height
m
Swell
Dir
 
Speed
knots
Gust
knots
hPa Trend Height
m
Period
s
Dir
23/11:30pm - NNE 3 4 1017.2 - 0.2 - - - - - - -
23/11:00pm - NE 3 4 1017.2 - 0.2 - - - - - - -
23/10:30pm - NNE 3 4 1017.5 - 0.2 - - - - - - -
23/10:00pm - NNE 3 4 1017.5 - 0.2 - - - - - - -
23/09:30pm - ENE 3 4 1017.8 - 0.2 - - - - - - -
23/09:00pm - E 3 4 1017.9 - 0.2 - - - - - - -
23/08:30pm - SE 5 6 1017.9 - 0.2 - - - - - - -
23/08:00pm - SE 5 8 1017.7 - 0.2 - - - - - - -
23/07:30pm - SE 5 7 1017.8 - 0.2 - - - - - - -
23/07:00pm - SSE 5 7 1017.6 - 0.2 - - - - - - -
23/06:30pm - SE 5 7 1017.5 - 0.2 - - - - - - -
23/06:00pm - SSE 5 6 1017.1 - 0.2 - - - - - - -
23/05:30pm - S 6 9 1016.9 - 0.2 - - - - - - -
23/05:00pm - SSE 8 11 1016.7 - 0.2 - - - - - - -
23/04:30pm - S 9 13 1016.6 - 0.2 - - - - - - -
23/04:00pm - S 10 14 1016.4 - 0.2 - - - - - - -
23/03:30pm - S 11 15 1016.3 - 0.2 - - - - - - -
23/03:00pm - S 11 15 1016.1 - 0.2 - - - - - - -
23/02:30pm - S 13 16 1016.1 - 0.2 - - - - - - -
23/02:00pm - S 11 15 1016.1 - 0.2 - - - - - - -
23/01:30pm - S 10 14 1016.3 - 0.2 - - - - - - -
23/01:00pm - S 9 12 1016.4 - 0.2 - - - - - - -
23/12:30pm - SSW 8 11 1016.7 - 0.2 - - - - - - -
23/12:00pm - SSW 9 13 1017.0 - 0.2 - - - - - - -
23/11:30am - SSW 10 13 1017.5 - 0.2 - - - - - - -
23/11:00am - SW 9 12 1017.6 - 0.2 - - - - - - -
23/10:30am - SW 9 13 1017.9 - 0.0 - - - - - - -
23/10:00am - WSW 4 7 1017.7 - 0.0 - - - - - - -
23/09:30am - WSW 6 9 1018.0 - 0.0 - - - - - - -
23/09:00am - WSW 5 8 1017.8 - 0.0 - - - - - - -
23/08:30am - WSW 2 3 1017.9 - 0.0 - - - - - - -
23/08:00am - NW 2 3 1017.6 - 0.0 - - - - - - -
23/07:30am - NNW 4 5 1017.4 - 0.0 - - - - - - -
23/07:00am - NNW 5 6 1017.2 - 0.0 - - - - - - -
23/06:30am - N 4 5 1017.2 - 0.0 - - - - - - -
23/06:00am - NW 4 5 1017.3 - 0.0 - - - - - - -
23/05:30am - NNW 4 4 1017.2 - 0.0 - - - - - - -
23/05:00am - NNW 4 4 1016.8 - 0.0 - - - - - - -
23/04:30am - W 2 3 1016.8 - 0.0 - - - - - - -
23/04:00am - WNW 2 3 1016.7 - 0.0 - - - - - - -
23/03:30am - WNW 4 4 1016.6 - 0.0 - - - - - - -
23/03:00am - NW 4 5 1016.7 - 0.0 - - - - - - -
23/02:30am - NW 3 4 1016.9 - 0.0 - - - - - - -
23/02:00am - NNW 2 3 1016.7 - 0.0 - - - - - - -
23/01:30am - NNW 2 3 1017.1 - 0.0 - - - - - - -
23/01:00am - NNW 4 5 1017.2 - 0.0 - - - - - - -
23/12:30am - NNW 4 4 1017.6 - 0.0 - - - - - - -
23/12:00am - NW 1 3 1017.7 - 0.0 - - - - - - -
 
Date/Time
WST
Temp

°C
Wind Pressure Rain
since 9am
mm
Weather Cloud Vis
km
Sea
Height
m
Swell
Dir
 
Speed
knots
Gust
knots
hPa Trend Height
m
Period
s
Dir
22/11:30pm - N 2 4 1018.0 - 0.0 - - - - - - -
22/11:00pm - N 3 4 1018.1 - 0.0 - - - - - - -
22/10:30pm - N 3 3 1018.5 - 0.0 - - - - - - -
22/10:00pm - N 3 3 1018.1 - 0.0 - - - - - - -
22/09:30pm - NNE 2 4 1018.3 - 0.0 - - - - - - -
22/09:00pm - NNE 3 4 1018.1 - 0.0 - - - - - - -
22/08:30pm - NNE 3 4 1018.1 - 0.0 - - - - - - -
22/08:00pm - NE 3 4 1017.9 - 0.0 - - - - - - -
22/07:30pm - NE 3 4 1018.1 - 0.0 - - - - - - -
22/07:00pm - ESE 4 5 1017.9 - 0.0 - - - - - - -
22/06:30pm - ESE 5 6 1017.8 - 0.0 - - - - - - -
22/06:00pm - SE 6 7 1017.6 - 0.0 - - - - - - -
22/05:30pm - SE 4 6 1017.6 - 0.0 - - - - - - -
22/05:00pm - SE 5 8 1017.5 - 0.0 - - - - - - -
22/04:30pm - SE 7 9 1017.5 - 0.0 - - - - - - -
22/04:00pm - SSE 7 11 1017.4 - 0.0 - - - - - - -
22/03:30pm - SSE 9 12 1017.7 - 0.0 - - - - - - -
22/03:00pm - SSE 9 12 1017.7 - 0.0 - - - - - - -
22/02:30pm - S 10 14 1017.8 - 0.0 - - - - - - -
22/02:00pm - SSE 10 13 1017.9 - 0.0 - - - - - - -
22/01:30pm - S 10 13 1018.2 - 0.0 - - - - - - -
22/01:00pm - S 9 13 1018.5 - 0.0 - - - - - - -
22/12:30pm - S 8 13 1019.0 - 0.0 - - - - - - -
22/12:00pm - S 3 6 1019.6 - 0.0 - - - - - - -
22/11:30am - NNW 3 8 1020.2 - 0.0 - - - - - - -
22/11:00am - WNW 3 8 1020.5 - 0.0 - - - - - - -
22/10:30am - NW 4 7 1021.0 - 0.0 - - - - - - -
22/10:00am - N 6 8 1021.2 - 0.0 - - - - - - -
22/09:30am - N 7 10 1021.5 - 0.0 - - - - - - -
22/09:00am - NNW 6 9 1021.6 - 0.0 - - - - - - -
22/08:30am - NNW 6 9 1021.8 - 0.0 - - - - - - -
22/08:00am - N 6 10 1021.8 - 0.0 - - - - - - -
22/07:30am - N 6 9 1021.7 - 0.0 - - - - - - -
22/07:00am - N 7 10 1021.3 - 0.0 - - - - - - -
22/06:30am - NNW 6 8 1021.3 - 0.0 - - - - - - -
22/06:00am - NNW 6 8 1021.1 - 0.0 - - - - - - -
22/05:30am - NNW 6 9 1021.2 - 0.0 - - - - - - -
22/05:00am - N 7 9 1020.9 - 0.0 - - - - - - -
22/04:30am - NNW 5 7 1020.7 - 0.0 - - - - - - -
22/04:00am - N 4 6 1020.5 - 0.0 - - - - - - -
22/03:30am - NNW 5 7 1020.3 - 0.0 - - - - - - -
22/03:00am - N 4 6 1020.1 - 0.0 - - - - - - -
22/02:30am - N 3 4 1020.3 - 0.0 - - - - - - -
22/02:00am - N 4 5 1020.3 - 0.0 - - - - - - -
22/01:30am - N 4 5 1020.7 - 0.0 - - - - - - -
22/01:00am - NNE 3 4 1020.6 - 0.0 - - - - - - -
22/12:30am - N 3 4 1020.8 - 0.0 - - - - - - -
22/12:00am - N 3 4 1020.7 - 0.0 - - - - - - -
 
Date/Time
WST
Temp

°C
Wind Pressure Rain
since 9am
mm
Weather Cloud Vis
km
Sea
Height
m
Swell
Dir
 
Speed
knots
Gust
knots
hPa Trend Height
m
Period
s
Dir
21/11:30pm - N 3 4 1020.8 - 0.0 - - - - - - -
21/11:00pm - N 3 4 1020.7 - 0.0 - - - - - - -

Other Formats:

Comma delimited format used in spreadsheet applications
http://www.bom.gov.au/fwo/IDW60701/IDW60701.95635.axf

JavaScript Object Notation format (JSON) in row-major order
http://www.bom.gov.au/fwo/IDW60701/IDW60701.95635.json